sensor_id;sensor_type;location;lat;lon;timestamp;temperature;humidity
2226;DHT22;1119;48.288;8.726;2023-03-01T00:01:35;-1.60;99.90
2226;DHT22;1119;48.288;8.726;2023-03-01T00:04:23;-1.60;99.90
2226;DHT22;1119;48.288;8.726;2023-03-01T00:07:12;-1.60;99.90
2226;DHT22;1119;48.288;8.726;2023-03-01T00:09:59;-1.70;99.90
2226;DHT22;1119;48.288;8.726;2023-03-01T00:12:47;-1.70;99.90
2226;DHT22;1119;48.288;8.726;2023-03-01T00:15:38;-1.70;99.90
2226;DHT22;1119;48.288;8.726;2023-03-01T00:18:27;-1.80;99.90
2226;DHT22;1119;48.288;8.726;2023-03-01T00:21:15;-1.80;99.90
2226;DHT22;1119;48.288;8.726;2023-03-01T00:24:05;-1.80;99.90
2226;DHT22;1119;48.288;8.726;2023-03-01T00:26:54;-1.80;99.90
2226;DHT22;1119;48.288;8.726;2023-03-01T00:29:42;-1.90;99.90
2226;DHT22;1119;48.288;8.726;2023-03-01T00:32:30;-1.90;99.90
2226;DHT22;1119;48.288;8.726;2023-03-01T00:35:18;-1.90;99.90
2226;DHT22;1119;48.288;8.726;2023-03-01T00:38:05;-1.90;99.90
2226;DHT22;1119;48.288;8.726;2023-03-01T00:40:54;-1.90;99.90
2226;DHT22;1119;48.288;8.726;2023-03-01T00:43:42;-1.90;99.90
2226;DHT22;1119;48.288;8.726;2023-03-01T00:46:31;-1.90;99.90
2226;DHT22;1119;48.288;8.726;2023-03-01T00:49:19;-2.00;99.90
2226;DHT22;1119;48.288;8.726;2023-03-01T00:52:07;-2.10;99.90
2226;DHT22;1119;48.288;8.726;2023-03-01T00:54:54;-2.10;99.90
2226;DHT22;1119;48.288;8.726;2023-03-01T00:57:45;-2.20;99.90
2226;DHT22;1119;48.288;8.726;2023-03-01T01:00:32;-2.20;99.90
2226;DHT22;1119;48.288;8.726;2023-03-01T01:03:21;-2.30;99.90
2226;DHT22;1119;48.288;8.726;2023-03-01T01:06:14;-2.30;99.90
2226;DHT22;1119;48.288;8.726;2023-03-01T01:09:06;-2.30;99.90
2226;DHT22;1119;48.288;8.726;2023-03-01T01:11:54;-2.30;99.90
2226;DHT22;1119;48.288;8.726;2023-03-01T01:14:43;-2.30;99.90
2226;DHT22;1119;48.288;8.726;2023-03-01T01:17:31;-2.30;99.90
2226;DHT22;1119;48.288;8.726;2023-03-01T01:20:19;-2.30;99.90
2226;DHT22;1119;48.288;8.726;2023-03-01T01:23:06;-2.40;99.90
2226;DHT22;1119;48.288;8.726;2023-03-01T01:25:54;-2.40;99.90
2226;DHT22;1119;48.288;8.726;2023-03-01T01:28:42;-2.40;99.90
2226;DHT22;1119;48.288;8.726;2023-03-01T01:31:32;-2.40;99.90
2226;DHT22;1119;48.288;8.726;2023-03-01T01:34:21;-2.40;99.90
2226;DHT22;1119;48.288;8.726;2023-03-01T01:37:08;-2.40;99.90
2226;DHT22;1119;48.288;8.726;2023-03-01T01:39:56;-2.50;99.90
2226;DHT22;1119;48.288;8.726;2023-03-01T01:42:45;-2.50;99.90
2226;DHT22;1119;48.288;8.726;2023-03-01T01:45:35;-2.50;99.90
2226;DHT22;1119;48.288;8.726;2023-03-01T01:48:38;-2.50;99.90
2226;DHT22;1119;48.288;8.726;2023-03-01T01:51:29;-2.50;99.90
2226;DHT22;1119;48.288;8.726;2023-03-01T01:54:27;-2.50;99.90
2226;DHT22;1119;48.288;8.726;2023-03-01T01:57:20;-2.50;99.90
2226;DHT22;1119;48.288;8.726;2023-03-01T02:00:13;-2.60;99.90
2226;DHT22;1119;48.288;8.726;2023-03-01T02:03:06;-2.60;99.90
2226;DHT22;1119;48.288;8.726;2023-03-01T02:06:01;-2.60;99.90
2226;DHT22;1119;48.288;8.726;2023-03-01T02:08:52;-2.50;99.90
2226;DHT22;1119;48.288;8.726;2023-03-01T02:11:40;-2.50;99.90
2226;DHT22;1119;48.288;8.726;2023-03-01T02:14:28;-2.50;99.90
2226;DHT22;1119;48.288;8.726;2023-03-01T02:17:17;-2.50;99.90
2226;DHT22;1119;48.288;8.726;2023-03-01T02:20:14;-2.40;99.90
2226;DHT22;1119;48.288;8.726;2023-03-01T02:23:07;-2.40;99.90
2226;DHT22;1119;48.288;8.726;2023-03-01T02:26:00;-2.50;99.90
2226;DHT22;1119;48.288;8.726;2023-03-01T02:28:53;-2.40;99.90
2226;DHT22;1119;48.288;8.726;2023-03-01T02:31:40;-2.50;99.90
2226;DHT22;1119;48.288;8.726;2023-03-01T02:34:31;-2.50;99.90
2226;DHT22;1119;48.288;8.726;2023-03-01T02:37:19;-2.50;99.90
2226;DHT22;1119;48.288;8.726;2023-03-01T02:40:15;-2.40;99.90
2226;DHT22;1119;48.288;8.726;2023-03-01T02:43:08;-2.40;99.90
2226;DHT22;1119;48.288;8.726;2023-03-01T02:46:08;-2.40;99.90
2226;DHT22;1119;48.288;8.726;2023-03-01T02:49:00;-2.40;99.90
2226;DHT22;1119;48.288;8.726;2023-03-01T02:51:56;-2.40;99.90
2226;DHT22;1119;48.288;8.726;2023-03-01T02:54:57;-2.30;99.90
2226;DHT22;1119;48.288;8.726;2023-03-01T02:57:47;-2.30;99.90
2226;DHT22;1119;48.288;8.726;2023-03-01T03:00:40;-2.30;99.90
2226;DHT22;1119;48.288;8.726;2023-03-01T03:03:36;-2.30;99.90
2226;DHT22;1119;48.288;8.726;2023-03-01T03:06:23;-2.20;99.90
2226;DHT22;1119;48.288;8.726;2023-03-01T03:09:12;-2.20;99.90
2226;DHT22;1119;48.288;8.726;2023-03-01T03:12:01;-2.20;99.90
2226;DHT22;1119;48.288;8.726;2023-03-01T03:14:49;-2.20;99.90
2226;DHT22;1119;48.288;8.726;2023-03-01T03:17:38;-2.20;99.90
2226;DHT22;1119;48.288;8.726;2023-03-01T03:20:28;-2.20;99.90
2226;DHT22;1119;48.288;8.726;2023-03-01T03:23:16;-2.20;99.90
2226;DHT22;1119;48.288;8.726;2023-03-01T03:26:04;-2.20;99.90
2226;DHT22;1119;48.288;8.726;2023-03-01T03:28:52;-2.20;99.90
2226;DHT22;1119;48.288;8.726;2023-03-01T03:31:39;-2.30;99.90
2226;DHT22;1119;48.288;8.726;2023-03-01T03:34:27;-2.30;99.90
2226;DHT22;1119;48.288;8.726;2023-03-01T03:37:16;-2.30;99.90
2226;DHT22;1119;48.288;8.726;2023-03-01T03:40:17;-2.40;99.90
2226;DHT22;1119;48.288;8.726;2023-03-01T03:43:07;-2.40;99.90
2226;DHT22;1119;48.288;8.726;2023-03-01T03:45:55;-2.40;99.90
2226;DHT22;1119;48.288;8.726;2023-03-01T03:48:44;-2.40;99.90
2226;DHT22;1119;48.288;8.726;2023-03-01T03:51:32;-2.40;99.90
2226;DHT22;1119;48.288;8.726;2023-03-01T03:54:21;-2.40;99.90
2226;DHT22;1119;48.288;8.726;2023-03-01T03:57:09;-2.30;99.90
2226;DHT22;1119;48.288;8.726;2023-03-01T03:59:56;-2.20;99.90
2226;DHT22;1119;48.288;8.726;2023-03-01T04:02:45;-2.20;99.90
2226;DHT22;1119;48.288;8.726;2023-03-01T04:05:33;-2.30;99.90
2226;DHT22;1119;48.288;8.726;2023-03-01T04:08:22;-2.30;99.90
2226;DHT22;1119;48.288;8.726;2023-03-01T04:11:11;-2.30;99.90
2226;DHT22;1119;48.288;8.726;2023-03-01T04:14:14;-2.30;99.90
2226;DHT22;1119;48.288;8.726;2023-03-01T04:17:02;-2.30;99.90
2226;DHT22;1119;48.288;8.726;2023-03-01T04:19:51;-2.30;99.90
2226;DHT22;1119;48.288;8.726;2023-03-01T04:22:39;-2.30;99.90
2226;DHT22;1119;48.288;8.726;2023-03-01T04:25:27;-2.20;99.90
2226;DHT22;1119;48.288;8.726;2023-03-01T04:28:19;-2.20;99.90
2226;DHT22;1119;48.288;8.726;2023-03-01T04:31:09;-2.20;99.90
2226;DHT22;1119;48.288;8.726;2023-03-01T04:34:02;-2.20;99.90
2226;DHT22;1119;48.288;8.726;2023-03-01T04:36:50;-2.20;99.90
2226;DHT22;1119;48.288;8.726;2023-03-01T04:39:37;-2.20;99.90
2226;DHT22;1119;48.288;8.726;2023-03-01T04:42:31;-2.20;99.90
2226;DHT22;1119;48.288;8.726;2023-03-01T04:45:20;-2.20;99.90
2226;DHT22;1119;48.288;8.726;2023-03-01T04:48:08;-2.20;99.90
2226;DHT22;1119;48.288;8.726;2023-03-01T04:50:56;-2.30;99.90
2226;DHT22;1119;48.288;8.726;2023-03-01T04:53:44;-2.20;99.90
2226;DHT22;1119;48.288;8.726;2023-03-01T04:56:31;-2.20;99.90
2226;DHT22;1119;48.288;8.726;2023-03-01T04:59:19;-2.20;99.90
2226;DHT22;1119;48.288;8.726;2023-03-01T05:02:09;-2.20;99.90
2226;DHT22;1119;48.288;8.726;2023-03-01T05:04:57;-2.20;99.90
2226;DHT22;1119;48.288;8.726;2023-03-01T05:07:45;-2.20;99.90
2226;DHT22;1119;48.288;8.726;2023-03-01T05:10:34;-2.10;99.90
2226;DHT22;1119;48.288;8.726;2023-03-01T05:13:25;-2.10;99.90
2226;DHT22;1119;48.288;8.726;2023-03-01T05:16:15;-2.10;99.90
2226;DHT22;1119;48.288;8.726;2023-03-01T05:19:04;-2.10;99.90
2226;DHT22;1119;48.288;8.726;2023-03-01T05:21:57;-2.10;99.90
2226;DHT22;1119;48.288;8.726;2023-03-01T05:24:51;-2.00;99.90
2226;DHT22;1119;48.288;8.726;2023-03-01T05:27:40;-2.00;99.90
2226;DHT22;1119;48.288;8.726;2023-03-01T05:30:27;-2.00;99.90
2226;DHT22;1119;48.288;8.726;2023-03-01T05:33:15;-2.10;99.90
2226;DHT22;1119;48.288;8.726;2023-03-01T05:36:05;-2.10;99.90
2226;DHT22;1119;48.288;8.726;2023-03-01T05:38:54;-2.10;99.90
2226;DHT22;1119;48.288;8.726;2023-03-01T05:41:41;-2.10;99.90
2226;DHT22;1119;48.288;8.726;2023-03-01T05:44:29;-2.00;99.90
2226;DHT22;1119;48.288;8.726;2023-03-01T05:47:17;-2.10;99.90
2226;DHT22;1119;48.288;8.726;2023-03-01T05:50:05;-2.10;99.90
2226;DHT22;1119;48.288;8.726;2023-03-01T05:52:59;-2.20;99.90
2226;DHT22;1119;48.288;8.726;2023-03-01T05:55:48;-2.20;99.90
2226;DHT22;1119;48.288;8.726;2023-03-01T05:58:37;-2.20;99.90
2226;DHT22;1119;48.288;8.726;2023-03-01T06:01:25;-2.10;99.90
2226;DHT22;1119;48.288;8.726;2023-03-01T06:04:12;-2.20;99.90
2226;DHT22;1119;48.288;8.726;2023-03-01T06:07:00;-2.10;99.90
2226;DHT22;1119;48.288;8.726;2023-03-01T06:09:49;-2.10;99.90
2226;DHT22;1119;48.288;8.726;2023-03-01T06:12:38;-2.10;99.90
2226;DHT22;1119;48.288;8.726;2023-03-01T06:15:27;-2.20;99.90
2226;DHT22;1119;48.288;8.726;2023-03-01T06:18:14;-2.20;99.90
2226;DHT22;1119;48.288;8.726;2023-03-01T06:21:02;-2.20;99.90
2226;DHT22;1119;48.288;8.726;2023-03-01T06:23:50;-2.10;99.90
2226;DHT22;1119;48.288;8.726;2023-03-01T06:26:39;-2.20;99.90
2226;DHT22;1119;48.288;8.726;2023-03-01T06:29:28;-2.10;99.90
2226;DHT22;1119;48.288;8.726;2023-03-01T06:32:15;-2.10;99.90
2226;DHT22;1119;48.288;8.726;2023-03-01T06:35:04;-2.10;99.90
2226;DHT22;1119;48.288;8.726;2023-03-01T06:37:54;-2.10;99.90
2226;DHT22;1119;48.288;8.726;2023-03-01T06:40:43;-2.10;99.90
2226;DHT22;1119;48.288;8.726;2023-03-01T06:43:32;-2.10;99.90
2226;DHT22;1119;48.288;8.726;2023-03-01T06:46:20;-2.10;99.90
2226;DHT22;1119;48.288;8.726;2023-03-01T06:49:08;-2.00;99.90
2226;DHT22;1119;48.288;8.726;2023-03-01T06:51:56;-2.00;99.90
2226;DHT22;1119;48.288;8.726;2023-03-01T06:54:44;-2.00;99.90
2226;DHT22;1119;48.288;8.726;2023-03-01T06:57:31;-2.00;99.90
2226;DHT22;1119;48.288;8.726;2023-03-01T07:00:22;-2.00;99.90
2226;DHT22;1119;48.288;8.726;2023-03-01T07:03:12;-2.00;99.90
2226;DHT22;1119;48.288;8.726;2023-03-01T07:06:00;-2.00;99.90
2226;DHT22;1119;48.288;8.726;2023-03-01T07:08:47;-2.10;99.90
2226;DHT22;1119;48.288;8.726;2023-03-01T07:11:35;-2.10;99.90
2226;DHT22;1119;48.288;8.726;2023-03-01T07:14:23;-2.10;99.90
2226;DHT22;1119;48.288;8.726;2023-03-01T07:17:13;-2.00;99.90
2226;DHT22;1119;48.288;8.726;2023-03-01T07:20:01;-2.00;99.90
2226;DHT22;1119;48.288;8.726;2023-03-01T07:22:48;-1.90;99.90
2226;DHT22;1119;48.288;8.726;2023-03-01T07:25:36;-1.90;99.90
2226;DHT22;1119;48.288;8.726;2023-03-01T07:28:24;-1.90;99.90
2226;DHT22;1119;48.288;8.726;2023-03-01T07:31:12;-1.80;99.90
2226;DHT22;1119;48.288;8.726;2023-03-01T07:34:01;-1.80;99.90
2226;DHT22;1119;48.288;8.726;2023-03-01T07:36:49;-1.70;99.90
2226;DHT22;1119;48.288;8.726;2023-03-01T07:39:36;-1.70;99.90
2226;DHT22;1119;48.288;8.726;2023-03-01T07:42:24;-1.70;99.90
2226;DHT22;1119;48.288;8.726;2023-03-01T07:45:12;-1.70;99.90
2226;DHT22;1119;48.288;8.726;2023-03-01T07:48:00;-1.70;99.90
2226;DHT22;1119;48.288;8.726;2023-03-01T07:50:49;-1.60;99.90
2226;DHT22;1119;48.288;8.726;2023-03-01T07:53:37;-1.60;99.90
2226;DHT22;1119;48.288;8.726;2023-03-01T07:56:25;-1.50;99.90
2226;DHT22;1119;48.288;8.726;2023-03-01T07:59:12;-1.50;99.90
2226;DHT22;1119;48.288;8.726;2023-03-01T08:02:00;-1.50;99.90
2226;DHT22;1119;48.288;8.726;2023-03-01T08:04:48;-1.40;99.90
2226;DHT22;1119;48.288;8.726;2023-03-01T08:07:37;-1.50;99.90
2226;DHT22;1119;48.288;8.726;2023-03-01T08:10:25;-1.40;99.90
2226;DHT22;1119;48.288;8.726;2023-03-01T08:13:13;-1.50;99.90
2226;DHT22;1119;48.288;8.726;2023-03-01T08:16:01;-1.40;99.90
2226;DHT22;1119;48.288;8.726;2023-03-01T08:18:50;-1.40;99.90
2226;DHT22;1119;48.288;8.726;2023-03-01T08:21:38;-1.30;99.90
2226;DHT22;1119;48.288;8.726;2023-03-01T08:24:27;-1.30;99.90
2226;DHT22;1119;48.288;8.726;2023-03-01T08:27:15;-1.20;99.90
2226;DHT22;1119;48.288;8.726;2023-03-01T08:30:04;-1.20;99.90
2226;DHT22;1119;48.288;8.726;2023-03-01T08:32:52;-1.10;99.90
2226;DHT22;1119;48.288;8.726;2023-03-01T08:35:40;-1.00;99.90
2226;DHT22;1119;48.288;8.726;2023-03-01T08:38:28;-1.10;99.90
2226;DHT22;1119;48.288;8.726;2023-03-01T08:41:17;-1.00;99.90
2226;DHT22;1119;48.288;8.726;2023-03-01T08:44:05;-1.00;99.90
2226;DHT22;1119;48.288;8.726;2023-03-01T08:46:53;-0.90;99.90
2226;DHT22;1119;48.288;8.726;2023-03-01T08:49:41;-0.80;99.90
2226;DHT22;1119;48.288;8.726;2023-03-01T08:52:29;-0.80;99.90
2226;DHT22;1119;48.288;8.726;2023-03-01T08:55:17;-0.80;99.90
2226;DHT22;1119;48.288;8.726;2023-03-01T08:58:06;-0.80;99.90
2226;DHT22;1119;48.288;8.726;2023-03-01T09:00:53;-0.70;99.90
2226;DHT22;1119;48.288;8.726;2023-03-01T09:03:42;-0.70;99.90
2226;DHT22;1119;48.288;8.726;2023-03-01T09:06:31;-0.70;99.90
2226;DHT22;1119;48.288;8.726;2023-03-01T09:09:19;-0.60;99.90
2226;DHT22;1119;48.288;8.726;2023-03-01T09:12:07;-0.70;99.90
2226;DHT22;1119;48.288;8.726;2023-03-01T09:14:56;-0.70;99.90
2226;DHT22;1119;48.288;8.726;2023-03-01T09:17:43;-0.60;99.90
2226;DHT22;1119;48.288;8.726;2023-03-01T09:20:32;-0.60;99.90
2226;DHT22;1119;48.288;8.726;2023-03-01T09:23:19;-0.40;99.90
2226;DHT22;1119;48.288;8.726;2023-03-01T09:26:08;-0.50;99.90
2226;DHT22;1119;48.288;8.726;2023-03-01T09:28:57;-0.50;99.90
2226;DHT22;1119;48.288;8.726;2023-03-01T09:31:46;-0.30;99.90
2226;DHT22;1119;48.288;8.726;2023-03-01T09:34:34;-0.20;99.90
2226;DHT22;1119;48.288;8.726;2023-03-01T09:37:42;-0.20;99.90
2226;DHT22;1119;48.288;8.726;2023-03-01T09:40:31;0.00;99.90
2226;DHT22;1119;48.288;8.726;2023-03-01T09:43:23;0.00;99.90
2226;DHT22;1119;48.288;8.726;2023-03-01T09:46:15;0.00;99.90
2226;DHT22;1119;48.288;8.726;2023-03-01T09:49:09;0.10;99.90
2226;DHT22;1119;48.288;8.726;2023-03-01T09:52:03;0.30;99.90
2226;DHT22;1119;48.288;8.726;2023-03-01T09:54:59;0.40;99.90
2226;DHT22;1119;48.288;8.726;2023-03-01T09:57:50;0.60;99.90
2226;DHT22;1119;48.288;8.726;2023-03-01T10:00:43;0.60;99.90
2226;DHT22;1119;48.288;8.726;2023-03-01T10:03:36;0.70;99.90
2226;DHT22;1119;48.288;8.726;2023-03-01T10:06:28;0.80;99.90
2226;DHT22;1119;48.288;8.726;2023-03-01T10:09:17;0.90;99.90
2226;DHT22;1119;48.288;8.726;2023-03-01T10:12:10;0.90;99.90
2226;DHT22;1119;48.288;8.726;2023-03-01T10:15:04;0.90;99.90
2226;DHT22;1119;48.288;8.726;2023-03-01T10:17:58;0.90;99.90
2226;DHT22;1119;48.288;8.726;2023-03-01T10:20:53;1.00;99.90
2226;DHT22;1119;48.288;8.726;2023-03-01T10:23:43;1.10;99.90
2226;DHT22;1119;48.288;8.726;2023-03-01T10:26:40;1.20;99.90
2226;DHT22;1119;48.288;8.726;2023-03-01T10:29:39;1.30;99.90
2226;DHT22;1119;48.288;8.726;2023-03-01T10:32:30;1.50;99.90
2226;DHT22;1119;48.288;8.726;2023-03-01T10:35:20;1.60;99.90
2226;DHT22;1119;48.288;8.726;2023-03-01T10:38:10;1.80;99.80
2226;DHT22;1119;48.288;8.726;2023-03-01T10:41:06;1.90;99.60
2226;DHT22;1119;48.288;8.726;2023-03-01T10:43:56;2.00;98.90
2226;DHT22;1119;48.288;8.726;2023-03-01T10:46:45;1.90;98.50
2226;DHT22;1119;48.288;8.726;2023-03-01T10:49:58;2.20;98.60
2226;DHT22;1119;48.288;8.726;2023-03-01T10:52:57;2.20;97.70
2226;DHT22;1119;48.288;8.726;2023-03-01T10:55:46;2.10;97.60
2226;DHT22;1119;48.288;8.726;2023-03-01T10:58:36;2.20;98.10
2226;DHT22;1119;48.288;8.726;2023-03-01T11:01:26;2.50;97.80
2226;DHT22;1119;48.288;8.726;2023-03-01T11:04:15;2.60;97.00
2226;DHT22;1119;48.288;8.726;2023-03-01T11:07:03;2.80;96.70
2226;DHT22;1119;48.288;8.726;2023-03-01T11:09:50;2.70;96.20
2226;DHT22;1119;48.288;8.726;2023-03-01T11:12:38;2.50;96.00
2226;DHT22;1119;48.288;8.726;2023-03-01T11:15:28;2.30;96.30
2226;DHT22;1119;48.288;8.726;2023-03-01T11:18:22;2.40;96.70
2226;DHT22;1119;48.288;8.726;2023-03-01T11:21:10;2.50;96.80
2226;DHT22;1119;48.288;8.726;2023-03-01T11:23:59;2.60;96.50
2226;DHT22;1119;48.288;8.726;2023-03-01T11:26:53;2.70;96.10
2226;DHT22;1119;48.288;8.726;2023-03-01T11:29:44;3.00;96.00
2226;DHT22;1119;48.288;8.726;2023-03-01T11:32:42;3.10;95.40
2226;DHT22;1119;48.288;8.726;2023-03-01T11:35:34;3.30;95.00
2226;DHT22;1119;48.288;8.726;2023-03-01T11:38:24;3.40;94.60
2226;DHT22;1119;48.288;8.726;2023-03-01T11:41:16;3.40;94.60
2226;DHT22;1119;48.288;8.726;2023-03-01T11:44:12;3.40;94.10
2226;DHT22;1119;48.288;8.726;2023-03-01T11:47:30;3.50;94.20
2226;DHT22;1119;48.288;8.726;2023-03-01T11:50:30;3.70;94.50
2226;DHT22;1119;48.288;8.726;2023-03-01T11:53:34;3.80;93.50
2226;DHT22;1119;48.288;8.726;2023-03-01T11:56:38;3.80;93.20
2226;DHT22;1119;48.288;8.726;2023-03-01T12:03:16;3.90;93.00
2226;DHT22;1119;48.288;8.726;2023-03-01T12:06:27;3.90;92.90
2226;DHT22;1119;48.288;8.726;2023-03-01T12:09:34;4.00;92.70
2226;DHT22;1119;48.288;8.726;2023-03-01T12:12:36;4.00;92.80
2226;DHT22;1119;48.288;8.726;2023-03-01T12:22:31;4.30;91.80
2226;DHT22;1119;48.288;8.726;2023-03-01T12:25:27;4.10;90.90
2226;DHT22;1119;48.288;8.726;2023-03-01T12:32:00;4.30;91.70
2226;DHT22;1119;48.288;8.726;2023-03-01T12:35:11;4.40;91.50
2226;DHT22;1119;48.288;8.726;2023-03-01T12:38:30;4.60;91.40
2226;DHT22;1119;48.288;8.726;2023-03-01T12:41:40;4.60;90.70
2226;DHT22;1119;48.288;8.726;2023-03-01T12:44:37;4.40;91.10
2226;DHT22;1119;48.288;8.726;2023-03-01T12:47:52;4.50;91.30
2226;DHT22;1119;48.288;8.726;2023-03-01T12:50:47;4.40;90.90
2226;DHT22;1119;48.288;8.726;2023-03-01T12:53:40;4.40;90.70
2226;DHT22;1119;48.288;8.726;2023-03-01T12:56:32;4.40;90.50
2226;DHT22;1119;48.288;8.726;2023-03-01T12:59:30;4.40;90.30
2226;DHT22;1119;48.288;8.726;2023-03-01T13:02:24;4.30;90.50
2226;DHT22;1119;48.288;8.726;2023-03-01T13:05:24;4.40;90.80
2226;DHT22;1119;48.288;8.726;2023-03-01T13:08:20;4.50;90.70
2226;DHT22;1119;48.288;8.726;2023-03-01T13:11:19;4.50;90.90
2226;DHT22;1119;48.288;8.726;2023-03-01T13:14:44;4.80;90.80
2226;DHT22;1119;48.288;8.726;2023-03-01T13:17:41;4.70;90.40
2226;DHT22;1119;48.288;8.726;2023-03-01T13:20:33;4.60;90.40
2226;DHT22;1119;48.288;8.726;2023-03-01T13:23:27;4.70;90.50
2226;DHT22;1119;48.288;8.726;2023-03-01T13:26:18;4.70;90.10
2226;DHT22;1119;48.288;8.726;2023-03-01T13:29:25;4.70;90.20
2226;DHT22;1119;48.288;8.726;2023-03-01T13:32:21;4.90;89.20
2226;DHT22;1119;48.288;8.726;2023-03-01T13:35:40;4.90;89.60
2226;DHT22;1119;48.288;8.726;2023-03-01T13:38:44;4.90;89.30
2226;DHT22;1119;48.288;8.726;2023-03-01T13:41:55;4.90;89.50
2226;DHT22;1119;48.288;8.726;2023-03-01T13:44:43;4.90;89.20
2226;DHT22;1119;48.288;8.726;2023-03-01T13:47:38;4.90;88.80
2226;DHT22;1119;48.288;8.726;2023-03-01T13:50:29;4.90;88.20
2226;DHT22;1119;48.288;8.726;2023-03-01T13:53:23;4.90;88.90
2226;DHT22;1119;48.288;8.726;2023-03-01T13:56:14;4.90;88.70
2226;DHT22;1119;48.288;8.726;2023-03-01T13:59:12;4.90;88.70
2226;DHT22;1119;48.288;8.726;2023-03-01T14:02:01;4.90;88.70
2226;DHT22;1119;48.288;8.726;2023-03-01T14:04:56;5.00;89.40
2226;DHT22;1119;48.288;8.726;2023-03-01T14:07:51;4.90;88.00
2226;DHT22;1119;48.288;8.726;2023-03-01T14:10:44;4.80;88.10
2226;DHT22;1119;48.288;8.726;2023-03-01T14:13:54;4.80;88.30
2226;DHT22;1119;48.288;8.726;2023-03-01T14:16:56;4.80;88.60
2226;DHT22;1119;48.288;8.726;2023-03-01T14:19:56;4.80;88.80
2226;DHT22;1119;48.288;8.726;2023-03-01T14:22:46;4.80;88.60
2226;DHT22;1119;48.288;8.726;2023-03-01T14:25:35;4.70;88.60
2226;DHT22;1119;48.288;8.726;2023-03-01T14:28:25;4.80;89.10
2226;DHT22;1119;48.288;8.726;2023-03-01T14:31:32;4.80;88.40
2226;DHT22;1119;48.288;8.726;2023-03-01T14:34:26;4.90;88.60
2226;DHT22;1119;48.288;8.726;2023-03-01T14:37:20;4.90;88.20
2226;DHT22;1119;48.288;8.726;2023-03-01T14:40:21;4.90;88.10
2226;DHT22;1119;48.288;8.726;2023-03-01T14:43:17;5.00;88.00
2226;DHT22;1119;48.288;8.726;2023-03-01T14:46:17;5.00;88.00
2226;DHT22;1119;48.288;8.726;2023-03-01T14:49:11;5.00;87.40
2226;DHT22;1119;48.288;8.726;2023-03-01T14:52:04;5.00;87.30
2226;DHT22;1119;48.288;8.726;2023-03-01T14:54:53;5.10;87.30
2226;DHT22;1119;48.288;8.726;2023-03-01T14:57:43;5.00;87.30
2226;DHT22;1119;48.288;8.726;2023-03-01T15:00:33;5.10;87.30
2226;DHT22;1119;48.288;8.726;2023-03-01T15:03:27;5.10;86.90
2226;DHT22;1119;48.288;8.726;2023-03-01T15:06:20;5.10;87.50
2226;DHT22;1119;48.288;8.726;2023-03-01T15:09:14;5.10;87.30
2226;DHT22;1119;48.288;8.726;2023-03-01T15:12:25;5.20;87.80
2226;DHT22;1119;48.288;8.726;2023-03-01T15:15:45;5.20;87.70
2226;DHT22;1119;48.288;8.726;2023-03-01T15:18:34;5.30;86.80
2226;DHT22;1119;48.288;8.726;2023-03-01T15:21:24;5.30;87.20
2226;DHT22;1119;48.288;8.726;2023-03-01T15:24:21;5.30;86.60
2226;DHT22;1119;48.288;8.726;2023-03-01T15:27:16;5.30;86.30
2226;DHT22;1119;48.288;8.726;2023-03-01T15:30:06;5.30;86.30
2226;DHT22;1119;48.288;8.726;2023-03-01T15:33:27;5.30;86.90
2226;DHT22;1119;48.288;8.726;2023-03-01T15:36:36;5.10;86.10
2226;DHT22;1119;48.288;8.726;2023-03-01T15:39:37;5.10;86.80
2226;DHT22;1119;48.288;8.726;2023-03-01T15:42:41;5.00;87.10
2226;DHT22;1119;48.288;8.726;2023-03-01T15:45:30;5.00;87.30
2226;DHT22;1119;48.288;8.726;2023-03-01T15:48:20;5.00;87.00
2226;DHT22;1119;48.288;8.726;2023-03-01T15:51:13;5.00;87.10
2226;DHT22;1119;48.288;8.726;2023-03-01T15:54:04;5.00;87.30
2226;DHT22;1119;48.288;8.726;2023-03-01T15:56:55;4.90;87.40
2226;DHT22;1119;48.288;8.726;2023-03-01T15:59:42;4.90;87.80
2226;DHT22;1119;48.288;8.726;2023-03-01T16:02:30;4.90;87.40
2226;DHT22;1119;48.288;8.726;2023-03-01T16:05:21;4.90;87.20
2226;DHT22;1119;48.288;8.726;2023-03-01T16:08:09;4.80;87.20
2226;DHT22;1119;48.288;8.726;2023-03-01T16:10:56;4.80;87.70
2226;DHT22;1119;48.288;8.726;2023-03-01T16:13:45;4.80;88.20
2226;DHT22;1119;48.288;8.726;2023-03-01T16:16:33;4.80;88.20
2226;DHT22;1119;48.288;8.726;2023-03-01T16:19:21;4.70;88.70
2226;DHT22;1119;48.288;8.726;2023-03-01T16:22:09;4.70;88.40
2226;DHT22;1119;48.288;8.726;2023-03-01T16:24:57;4.70;88.10
2226;DHT22;1119;48.288;8.726;2023-03-01T16:27:48;4.60;89.00
2226;DHT22;1119;48.288;8.726;2023-03-01T16:30:38;4.60;88.80
2226;DHT22;1119;48.288;8.726;2023-03-01T16:33:26;4.60;88.20
2226;DHT22;1119;48.288;8.726;2023-03-01T16:36:14;4.60;88.70
2226;DHT22;1119;48.288;8.726;2023-03-01T16:39:03;4.50;88.70
2226;DHT22;1119;48.288;8.726;2023-03-01T16:41:50;4.50;88.70
2226;DHT22;1119;48.288;8.726;2023-03-01T16:44:38;4.40;88.80
2226;DHT22;1119;48.288;8.726;2023-03-01T16:47:27;4.40;89.00
2226;DHT22;1119;48.288;8.726;2023-03-01T16:50:15;4.40;89.40
2226;DHT22;1119;48.288;8.726;2023-03-01T16:53:02;4.30;89.60
2226;DHT22;1119;48.288;8.726;2023-03-01T16:55:54;4.30;90.00
2226;DHT22;1119;48.288;8.726;2023-03-01T16:58:42;4.20;90.10
2226;DHT22;1119;48.288;8.726;2023-03-01T17:01:30;4.20;90.20
2226;DHT22;1119;48.288;8.726;2023-03-01T17:04:24;4.10;90.10
2226;DHT22;1119;48.288;8.726;2023-03-01T17:07:12;4.10;90.20
2226;DHT22;1119;48.288;8.726;2023-03-01T17:10:00;4.10;90.50
2226;DHT22;1119;48.288;8.726;2023-03-01T17:12:48;4.00;90.50
2226;DHT22;1119;48.288;8.726;2023-03-01T17:15:38;4.00;90.80
2226;DHT22;1119;48.288;8.726;2023-03-01T17:18:27;4.00;90.90
2226;DHT22;1119;48.288;8.726;2023-03-01T17:21:16;3.90;90.90
2226;DHT22;1119;48.288;8.726;2023-03-01T17:24:04;3.90;91.00
2226;DHT22;1119;48.288;8.726;2023-03-01T17:26:53;3.80;91.10
2226;DHT22;1119;48.288;8.726;2023-03-01T17:29:41;3.70;91.10
2226;DHT22;1119;48.288;8.726;2023-03-01T17:32:29;3.70;91.30
2226;DHT22;1119;48.288;8.726;2023-03-01T17:35:17;3.60;91.30
2226;DHT22;1119;48.288;8.726;2023-03-01T17:38:06;3.60;91.50
2226;DHT22;1119;48.288;8.726;2023-03-01T17:40:54;3.60;91.50
2226;DHT22;1119;48.288;8.726;2023-03-01T17:43:45;3.60;91.50
2226;DHT22;1119;48.288;8.726;2023-03-01T17:46:33;3.60;91.40
2226;DHT22;1119;48.288;8.726;2023-03-01T17:49:21;3.50;91.40
2226;DHT22;1119;48.288;8.726;2023-03-01T17:52:08;3.60;91.40
2226;DHT22;1119;48.288;8.726;2023-03-01T17:54:57;3.60;91.50
2226;DHT22;1119;48.288;8.726;2023-03-01T17:57:45;3.60;91.30
2226;DHT22;1119;48.288;8.726;2023-03-01T18:00:34;3.60;91.20
2226;DHT22;1119;48.288;8.726;2023-03-01T18:03:22;3.70;91.20
2226;DHT22;1119;48.288;8.726;2023-03-01T18:06:12;3.70;91.00
2226;DHT22;1119;48.288;8.726;2023-03-01T18:09:03;3.70;91.10
2226;DHT22;1119;48.288;8.726;2023-03-01T18:11:53;3.70;91.20
2226;DHT22;1119;48.288;8.726;2023-03-01T18:14:40;3.70;91.40
2226;DHT22;1119;48.288;8.726;2023-03-01T18:17:28;3.80;91.10
2226;DHT22;1119;48.288;8.726;2023-03-01T18:20:16;3.80;91.20
2226;DHT22;1119;48.288;8.726;2023-03-01T18:23:04;3.80;91.20
2226;DHT22;1119;48.288;8.726;2023-03-01T18:25:57;3.80;91.10
2226;DHT22;1119;48.288;8.726;2023-03-01T18:28:47;3.70;91.30
2226;DHT22;1119;48.288;8.726;2023-03-01T18:31:36;3.70;91.50
2226;DHT22;1119;48.288;8.726;2023-03-01T18:34:24;3.60;91.60
2226;DHT22;1119;48.288;8.726;2023-03-01T18:37:11;3.60;91.80
2226;DHT22;1119;48.288;8.726;2023-03-01T18:39:59;3.50;91.80
2226;DHT22;1119;48.288;8.726;2023-03-01T18:42:47;3.50;91.90
2226;DHT22;1119;48.288;8.726;2023-03-01T18:45:36;3.50;92.10
2226;DHT22;1119;48.288;8.726;2023-03-01T18:48:24;3.40;92.20
2226;DHT22;1119;48.288;8.726;2023-03-01T18:51:14;3.40;92.20
2226;DHT22;1119;48.288;8.726;2023-03-01T18:54:03;3.30;92.20
2226;DHT22;1119;48.288;8.726;2023-03-01T18:56:52;3.40;92.40
2226;DHT22;1119;48.288;8.726;2023-03-01T18:59:39;3.30;92.40
2226;DHT22;1119;48.288;8.726;2023-03-01T19:02:29;3.30;92.70